sensor_id;sensor_type;location;lat;lon;timestamp;pressure;altitude;pressure_sealevel;temperature;humidity
77299;BME280;66361;52.034;20.656;2023-04-19T00:00:16;100193.84;;;9.62;86.81
77299;BME280;66361;52.034;20.656;2023-04-19T00:04:40;100185.44;;;9.55;86.91
77299;BME280;66361;52.034;20.656;2023-04-19T00:08:45;100186.56;;;9.51;88.08
77299;BME280;66361;52.034;20.656;2023-04-19T00:12:49;100185.13;;;9.46;88.75
77299;BME280;66361;52.034;20.656;2023-04-19T00:16:53;100177.59;;;9.40;89.45
77299;BME280;66361;52.034;20.656;2023-04-19T00:20:55;100168.44;;;9.31;89.96
77299;BME280;66361;52.034;20.656;2023-04-19T00:24:59;100165.94;;;9.28;90.59
77299;BME280;66361;52.034;20.656;2023-04-19T00:29:03;100167.97;;;9.23;90.09
77299;BME280;66361;52.034;20.656;2023-04-19T00:33:07;100152.53;;;9.17;91.26
77299;BME280;66361;52.034;20.656;2023-04-19T00:37:14;100157.66;;;9.04;91.72
77299;BME280;66361;52.034;20.656;2023-04-19T00:41:16;100155.69;;;8.92;93.00
77299;BME280;66361;52.034;20.656;2023-04-19T00:45:20;100152.56;;;8.70;98.58
77299;BME280;66361;52.034;20.656;2023-04-19T00:49:24;100145.06;;;8.47;100.00
77299;BME280;66361;52.034;20.656;2023-04-19T00:53:28;100151.59;;;8.40;100.00
77299;BME280;66361;52.034;20.656;2023-04-19T00:57:31;100157.03;;;8.37;100.00
77299;BME280;66361;52.034;20.656;2023-04-19T01:01:34;100149.06;;;8.38;100.00
77299;BME280;66361;52.034;20.656;2023-04-19T01:05:40;100153.31;;;8.41;100.00
77299;BME280;66361;52.034;20.656;2023-04-19T01:09:44;100141.84;;;8.42;100.00
77299;BME280;66361;52.034;20.656;2023-04-19T01:13:50;100147.13;;;8.42;100.00
77299;BME280;66361;52.034;20.656;2023-04-19T01:17:53;100134.22;;;8.37;100.00
77299;BME280;66361;52.034;20.656;2023-04-19T01:21:58;100136.16;;;8.34;100.00
77299;BME280;66361;52.034;20.656;2023-04-19T01:26:05;100136.31;;;8.31;100.00
77299;BME280;66361;52.034;20.656;2023-04-19T01:30:09;100121.72;;;8.25;100.00
77299;BME280;66361;52.034;20.656;2023-04-19T01:34:12;100129.84;;;8.20;100.00
77299;BME280;66361;52.034;20.656;2023-04-19T01:38:16;100134.50;;;8.15;100.00
77299;BME280;66361;52.034;20.656;2023-04-19T01:42:20;100131.50;;;8.06;100.00
77299;BME280;66361;52.034;20.656;2023-04-19T01:46:23;100122.34;;;7.97;100.00
77299;BME280;66361;52.034;20.656;2023-04-19T01:50:26;100123.50;;;7.92;100.00
77299;BME280;66361;52.034;20.656;2023-04-19T01:54:33;100111.22;;;7.92;100.00
77299;BME280;66361;52.034;20.656;2023-04-19T01:58:37;100104.38;;;7.72;100.00
77299;BME280;66361;52.034;20.656;2023-04-19T02:02:43;100106.63;;;7.63;100.00
77299;BME280;66361;52.034;20.656;2023-04-19T02:06:48;100111.25;;;7.58;100.00
77299;BME280;66361;52.034;20.656;2023-04-19T02:10:51;100099.06;;;7.57;100.00
77299;BME280;66361;52.034;20.656;2023-04-19T02:14:56;100095.50;;;7.58;100.00
77299;BME280;66361;52.034;20.656;2023-04-19T02:18:59;100090.19;;;7.59;100.00
77299;BME280;66361;52.034;20.656;2023-04-19T02:23:02;100086.53;;;7.62;100.00
77299;BME280;66361;52.034;20.656;2023-04-19T02:27:05;100080.28;;;7.64;100.00
77299;BME280;66361;52.034;20.656;2023-04-19T02:31:10;100078.34;;;7.68;100.00
77299;BME280;66361;52.034;20.656;2023-04-19T02:35:13;100074.78;;;7.69;100.00
77299;BME280;66361;52.034;20.656;2023-04-19T02:39:17;100067.69;;;7.71;100.00
77299;BME280;66361;52.034;20.656;2023-04-19T02:43:20;100057.09;;;7.72;100.00
77299;BME280;66361;52.034;20.656;2023-04-19T02:47:25;100060.41;;;7.76;100.00
77299;BME280;66361;52.034;20.656;2023-04-19T02:51:28;100051.59;;;7.77;100.00
77299;BME280;66361;52.034;20.656;2023-04-19T02:55:31;100048.03;;;7.78;100.00
77299;BME280;66361;52.034;20.656;2023-04-19T02:59:36;100032.34;;;7.76;100.00
77299;BME280;66361;52.034;20.656;2023-04-19T03:03:40;100023.72;;;7.74;100.00
77299;BME280;66361;52.034;20.656;2023-04-19T03:07:43;100019.63;;;7.69;100.00
77299;BME280;66361;52.034;20.656;2023-04-19T03:11:46;100019.88;;;7.64;100.00
77299;BME280;66361;52.034;20.656;2023-04-19T03:15:49;100020.09;;;7.60;100.00
77299;BME280;66361;52.034;20.656;2023-04-19T03:19:54;100021.22;;;7.56;100.00
77299;BME280;66361;52.034;20.656;2023-04-19T03:23:58;100020.38;;;7.55;100.00
77299;BME280;66361;52.034;20.656;2023-04-19T03:28:01;100016.78;;;7.56;100.00
77299;BME280;66361;52.034;20.656;2023-04-19T03:32:04;100014.25;;;7.55;100.00
77299;BME280;66361;52.034;20.656;2023-04-19T03:36:20;100020.53;;;7.52;100.00
77299;BME280;66361;52.034;20.656;2023-04-19T03:40:23;100005.75;;;7.50;100.00
77299;BME280;66361;52.034;20.656;2023-04-19T03:44:29;100006.53;;;7.52;100.00
77299;BME280;66361;52.034;20.656;2023-04-19T03:48:32;100007.47;;;7.51;100.00
77299;BME280;66361;52.034;20.656;2023-04-19T03:52:37;100004.06;;;7.49;100.00
77299;BME280;66361;52.034;20.656;2023-04-19T03:56:43;100001.59;;;7.46;100.00
77299;BME280;66361;52.034;20.656;2023-04-19T04:00:48;99996.34;;;7.46;100.00
77299;BME280;66361;52.034;20.656;2023-04-19T04:04:53;99990.41;;;7.42;100.00
77299;BME280;66361;52.034;20.656;2023-04-19T04:08:58;99995.66;;;7.42;100.00
77299;BME280;66361;52.034;20.656;2023-04-19T04:13:01;99982.47;;;7.44;100.00
77299;BME280;66361;52.034;20.656;2023-04-19T04:17:04;99981.69;;;7.42;100.00
77299;BME280;66361;52.034;20.656;2023-04-19T04:21:07;99981.69;;;7.42;100.00
77299;BME280;66361;52.034;20.656;2023-04-19T04:25:12;99976.44;;;7.42;100.00
77299;BME280;66361;52.034;20.656;2023-04-19T04:29:16;99973.97;;;7.39;100.00
77299;BME280;66361;52.034;20.656;2023-04-19T04:33:22;99973.97;;;7.39;100.00
77299;BME280;66361;52.034;20.656;2023-04-19T04:37:26;99974.06;;;7.37;100.00
77299;BME280;66361;52.034;20.656;2023-04-19T04:41:33;99968.66;;;7.40;100.00
77299;BME280;66361;52.034;20.656;2023-04-19T04:45:37;99970.19;;;7.44;100.00
77299;BME280;66361;52.034;20.656;2023-04-19T04:49:40;99965.00;;;7.43;100.00
77299;BME280;66361;52.034;20.656;2023-04-19T04:53:43;99964.94;;;7.44;100.00
77299;BME280;66361;52.034;20.656;2023-04-19T04:57:49;99957.97;;;7.43;100.00
77299;BME280;66361;52.034;20.656;2023-04-19T05:01:52;99955.34;;;7.43;100.00
77299;BME280;66361;52.034;20.656;2023-04-19T05:05:54;99949.19;;;7.44;100.00
77299;BME280;66361;52.034;20.656;2023-04-19T05:10:00;99946.56;;;7.44;100.00
77299;BME280;66361;52.034;20.656;2023-04-19T05:14:05;99948.22;;;7.45;100.00
77299;BME280;66361;52.034;20.656;2023-04-19T05:18:08;99953.41;;;7.47;100.00
77299;BME280;66361;52.034;20.656;2023-04-19T05:22:11;99949.69;;;7.51;100.00
77299;BME280;66361;52.034;20.656;2023-04-19T05:26:14;99946.16;;;7.52;100.00
77299;BME280;66361;52.034;20.656;2023-04-19T05:30:19;99943.25;;;7.56;100.00
77299;BME280;66361;52.034;20.656;2023-04-19T05:34:24;99939.72;;;7.57;100.00
77299;BME280;66361;52.034;20.656;2023-04-19T05:38:27;99943.19;;;7.58;100.00
77299;BME280;66361;52.034;20.656;2023-04-19T05:42:30;99947.41;;;7.60;100.00
77299;BME280;66361;52.034;20.656;2023-04-19T05:46:37;99946.50;;;7.61;100.00
77299;BME280;66361;52.034;20.656;2023-04-19T05:50:40;99939.63;;;7.59;100.00
77299;BME280;66361;52.034;20.656;2023-04-19T05:54:43;99944.03;;;7.58;100.00
77299;BME280;66361;52.034;20.656;2023-04-19T05:58:46;99943.25;;;7.56;100.00
77299;BME280;66361;52.034;20.656;2023-04-19T06:02:50;99947.00;;;7.52;100.00
77299;BME280;66361;52.034;20.656;2023-04-19T06:06:55;99955.88;;;7.50;100.00
77299;BME280;66361;52.034;20.656;2023-04-19T06:10:59;99957.81;;;7.46;100.00
77299;BME280;66361;52.034;20.656;2023-04-19T06:15:20;99948.56;;;7.39;100.00
77299;BME280;66361;52.034;20.656;2023-04-19T06:19:24;99953.13;;;7.36;100.00
77299;BME280;66361;52.034;20.656;2023-04-19T06:23:27;99952.44;;;7.32;100.00
77299;BME280;66361;52.034;20.656;2023-04-19T06:27:30;99948.22;;;7.29;100.00
77299;BME280;66361;52.034;20.656;2023-04-19T06:31:33;99946.50;;;7.28;100.00
77299;BME280;66361;52.034;20.656;2023-04-19T06:35:38;99953.59;;;7.26;100.00
77299;BME280;66361;52.034;20.656;2023-04-19T06:39:41;99940.41;;;7.28;100.00
77299;BME280;66361;52.034;20.656;2023-04-19T06:43:44;99948.28;;;7.28;100.00
77299;BME280;66361;52.034;20.656;2023-04-19T06:47:47;99945.50;;;7.31;100.00
77299;BME280;66361;52.034;20.656;2023-04-19T06:51:51;99949.50;;;7.38;100.00
77299;BME280;66361;52.034;20.656;2023-04-19T06:55:57;99943.09;;;7.44;100.00
77299;BME280;66361;52.034;20.656;2023-04-19T07:00:00;99942.56;;;7.53;100.00
77299;BME280;66361;52.034;20.656;2023-04-19T07:04:05;99933.59;;;7.57;100.00
77299;BME280;66361;52.034;20.656;2023-04-19T07:08:09;99939.72;;;7.57;100.00
77299;BME280;66361;52.034;20.656;2023-04-19T07:12:49;99937.75;;;7.61;100.00
77299;BME280;66361;52.034;20.656;2023-04-19T07:16:52;99939.28;;;7.65;100.00
77299;BME280;66361;52.034;20.656;2023-04-19T07:20:55;99938.44;;;7.64;100.00
77299;BME280;66361;52.034;20.656;2023-04-19T07:25:00;99944.22;;;7.71;100.00
77299;BME280;66361;52.034;20.656;2023-04-19T07:29:04;99934.41;;;7.74;100.00
77299;BME280;66361;52.034;20.656;2023-04-19T07:33:07;99934.56;;;7.87;100.00
77299;BME280;66361;52.034;20.656;2023-04-19T07:37:10;99940.25;;;7.95;100.00
77299;BME280;66361;52.034;20.656;2023-04-19T07:41:14;99944.16;;;8.04;100.00
77299;BME280;66361;52.034;20.656;2023-04-19T07:45:17;99935.84;;;8.11;100.00
77299;BME280;66361;52.034;20.656;2023-04-19T07:49:20;99939.38;;;8.26;100.00
77299;BME280;66361;52.034;20.656;2023-04-19T07:53:22;99939.19;;;8.29;100.00
77299;BME280;66361;52.034;20.656;2023-04-19T07:57:29;99941.41;;;8.37;100.00
77299;BME280;66361;52.034;20.656;2023-04-19T08:01:32;99943.59;;;8.44;100.00
77299;BME280;66361;52.034;20.656;2023-04-19T08:05:38;99946.41;;;8.41;100.00
77299;BME280;66361;52.034;20.656;2023-04-19T08:09:41;99949.78;;;8.43;100.00
77299;BME280;66361;52.034;20.656;2023-04-19T08:13:48;99950.81;;;8.41;100.00
77299;BME280;66361;52.034;20.656;2023-04-19T08:18:11;99945.47;;;8.42;100.00
77299;BME280;66361;52.034;20.656;2023-04-19T08:22:14;99941.88;;;8.43;100.00
77299;BME280;66361;52.034;20.656;2023-04-19T08:26:18;99942.66;;;8.45;100.00
77299;BME280;66361;52.034;20.656;2023-04-19T08:30:22;99953.19;;;8.45;100.00
77299;BME280;66361;52.034;20.656;2023-04-19T08:34:27;99950.72;;;8.42;100.00
77299;BME280;66361;52.034;20.656;2023-04-19T08:38:30;99946.13;;;8.46;100.00
77299;BME280;66361;52.034;20.656;2023-04-19T08:42:33;99954.78;;;8.48;100.00
77299;BME280;66361;52.034;20.656;2023-04-19T08:46:40;99958.34;;;8.47;100.00
77299;BME280;66361;52.034;20.656;2023-04-19T08:50:44;99962.16;;;8.57;100.00
77299;BME280;66361;52.034;20.656;2023-04-19T08:55:05;99957.97;;;8.68;100.00
77299;BME280;66361;52.034;20.656;2023-04-19T08:59:09;99961.31;;;8.86;100.00
77299;BME280;66361;52.034;20.656;2023-04-19T09:03:20;99960.28;;;9.03;100.00
77299;BME280;66361;52.034;20.656;2023-04-19T09:07:27;99947.63;;;9.23;100.00
77299;BME280;66361;52.034;20.656;2023-04-19T09:11:35;99951.81;;;9.42;100.00
77299;BME280;66361;52.034;20.656;2023-04-19T09:15:40;99952.00;;;9.67;100.00
77299;BME280;66361;52.034;20.656;2023-04-19T09:19:47;99951.75;;;9.98;96.21
77299;BME280;66361;52.034;20.656;2023-04-19T09:23:51;99957.56;;;10.44;94.22
77299;BME280;66361;52.034;20.656;2023-04-19T09:27:54;99966.41;;;10.70;90.93
77299;BME280;66361;52.034;20.656;2023-04-19T09:32:10;99960.06;;;10.73;89.62
77299;BME280;66361;52.034;20.656;2023-04-19T09:36:26;99963.34;;;10.63;90.35
77299;BME280;66361;52.034;20.656;2023-04-19T09:40:29;99949.28;;;10.63;88.84
77299;BME280;66361;52.034;20.656;2023-04-19T09:44:31;99946.78;;;10.87;89.15
77299;BME280;66361;52.034;20.656;2023-04-19T09:49:14;99943.44;;;10.85;88.05
77299;BME280;66361;52.034;20.656;2023-04-19T09:53:32;99944.31;;;10.71;89.58
77299;BME280;66361;52.034;20.656;2023-04-19T09:57:35;99946.31;;;10.55;89.85
77299;BME280;66361;52.034;20.656;2023-04-19T10:01:41;99951.31;;;10.45;92.49
77299;BME280;66361;52.034;20.656;2023-04-19T10:05:44;99957.75;;;10.41;92.02
77299;BME280;66361;52.034;20.656;2023-04-19T10:09:54;99954.47;;;10.38;92.92
77299;BME280;66361;52.034;20.656;2023-04-19T10:14:20;99953.66;;;10.50;93.00
77299;BME280;66361;52.034;20.656;2023-04-19T10:18:26;99963.44;;;10.62;89.63
77299;BME280;66361;52.034;20.656;2023-04-19T10:22:29;99964.06;;;10.65;89.52
77299;BME280;66361;52.034;20.656;2023-04-19T10:27:06;99964.72;;;10.69;86.32
77299;BME280;66361;52.034;20.656;2023-04-19T10:31:11;99969.41;;;10.51;88.03
77299;BME280;66361;52.034;20.656;2023-04-19T10:35:19;99978.63;;;10.58;90.12
77299;BME280;66361;52.034;20.656;2023-04-19T10:39:38;99968.88;;;10.86;90.54
77299;BME280;66361;52.034;20.656;2023-04-19T10:43:45;99978.16;;;10.91;90.87
77299;BME280;66361;52.034;20.656;2023-04-19T10:47:50;99973.91;;;10.76;91.43
77299;BME280;66361;52.034;20.656;2023-04-19T10:51:54;99978.72;;;10.57;89.48
77299;BME280;66361;52.034;20.656;2023-04-19T10:55:58;99982.53;;;10.39;89.63
77299;BME280;66361;52.034;20.656;2023-04-19T11:00:19;99988.13;;;10.34;92.03
77299;BME280;66361;52.034;20.656;2023-04-19T11:09:07;99983.31;;;10.27;92.38
77299;BME280;66361;52.034;20.656;2023-04-19T11:13:11;99987.88;;;10.25;93.49
77299;BME280;66361;52.034;20.656;2023-04-19T11:17:21;99980.44;;;10.17;94.95
77299;BME280;66361;52.034;20.656;2023-04-19T11:21:29;99982.44;;;10.13;94.59
77299;BME280;66361;52.034;20.656;2023-04-19T11:25:33;99986.13;;;10.11;95.02
77299;BME280;66361;52.034;20.656;2023-04-19T11:29:36;99988.19;;;10.06;94.57
77299;BME280;66361;52.034;20.656;2023-04-19T11:33:42;99990.91;;;10.04;95.36
77299;BME280;66361;52.034;20.656;2023-04-19T11:37:47;99985.31;;;10.23;96.32
77299;BME280;66361;52.034;20.656;2023-04-19T11:41:50;99983.47;;;10.64;96.11
77299;BME280;66361;52.034;20.656;2023-04-19T11:45:53;99981.72;;;11.17;88.99
77299;BME280;66361;52.034;20.656;2023-04-19T11:50:30;99984.78;;;11.87;84.72
77299;BME280;66361;52.034;20.656;2023-04-19T11:54:34;99986.31;;;12.51;83.40
77299;BME280;66361;52.034;20.656;2023-04-19T11:58:41;99981.22;;;12.95;76.77
77299;BME280;66361;52.034;20.656;2023-04-19T12:02:46;99976.63;;;13.32;76.78
77299;BME280;66361;52.034;20.656;2023-04-19T12:06:58;99977.19;;;13.14;73.80
77299;BME280;66361;52.034;20.656;2023-04-19T12:11:01;99970.22;;;13.35;74.67
77299;BME280;66361;52.034;20.656;2023-04-19T12:15:06;99982.19;;;13.40;75.82
77299;BME280;66361;52.034;20.656;2023-04-19T12:19:12;99979.00;;;13.24;75.63
77299;BME280;66361;52.034;20.656;2023-04-19T12:23:20;99990.25;;;13.04;76.77
77299;BME280;66361;52.034;20.656;2023-04-19T12:27:23;99986.97;;;12.89;75.04
77299;BME280;66361;52.034;20.656;2023-04-19T12:31:30;99988.31;;;12.95;75.48
77299;BME280;66361;52.034;20.656;2023-04-19T12:35:37;99989.31;;;13.05;76.44
77299;BME280;66361;52.034;20.656;2023-04-19T12:39:42;99991.59;;;12.98;74.88
77299;BME280;66361;52.034;20.656;2023-04-19T12:43:47;100001.19;;;12.88;77.73
77299;BME280;66361;52.034;20.656;2023-04-19T12:47:50;100001.81;;;12.55;76.92
77299;BME280;66361;52.034;20.656;2023-04-19T12:51:53;100000.00;;;12.32;79.72
77299;BME280;66361;52.034;20.656;2023-04-19T12:55:59;99994.69;;;12.08;80.12
77299;BME280;66361;52.034;20.656;2023-04-19T13:00:03;99994.19;;;11.91;81.47
77299;BME280;66361;52.034;20.656;2023-04-19T13:04:09;99998.66;;;11.78;82.55
77299;BME280;66361;52.034;20.656;2023-04-19T13:08:12;100005.22;;;11.72;81.93
77299;BME280;66361;52.034;20.656;2023-04-19T13:12:18;100005.94;;;11.87;83.33
77299;BME280;66361;52.034;20.656;2023-04-19T13:16:21;99996.72;;;12.05;80.66
77299;BME280;66361;52.034;20.656;2023-04-19T13:20:24;100004.28;;;12.22;80.77
77299;BME280;66361;52.034;20.656;2023-04-19T13:24:28;100002.78;;;12.31;79.75
77299;BME280;66361;52.034;20.656;2023-04-19T13:28:32;100004.47;;;12.32;79.08
77299;BME280;66361;52.034;20.656;2023-04-19T13:32:37;100011.25;;;12.23;82.17
77299;BME280;66361;52.034;20.656;2023-04-19T13:36:40;100008.53;;;12.12;82.66
77299;BME280;66361;52.034;20.656;2023-04-19T13:40:43;100008.22;;;12.04;80.89
77299;BME280;66361;52.034;20.656;2023-04-19T13:44:48;100006.13;;;11.96;79.45
77299;BME280;66361;52.034;20.656;2023-04-19T13:48:51;100013.03;;;11.86;81.63
77299;BME280;66361;52.034;20.656;2023-04-19T13:52:54;100000.53;;;11.88;82.92
77299;BME280;66361;52.034;20.656;2023-04-19T13:57:02;100002.75;;;11.94;83.01
77299;BME280;66361;52.034;20.656;2023-04-19T14:01:09;100000.69;;;12.10;84.68
77299;BME280;66361;52.034;20.656;2023-04-19T14:05:13;99993.25;;;12.28;82.79
77299;BME280;66361;52.034;20.656;2023-04-19T14:09:16;99996.38;;;12.46;80.86
77299;BME280;66361;52.034;20.656;2023-04-19T14:13:19;99994.50;;;12.59;78.45
77299;BME280;66361;52.034;20.656;2023-04-19T14:17:24;99995.94;;;12.76;80.50
77299;BME280;66361;52.034;20.656;2023-04-19T14:21:29;99998.41;;;12.90;78.68
77299;BME280;66361;52.034;20.656;2023-04-19T14:25:34;99992.66;;;12.96;76.58
77299;BME280;66361;52.034;20.656;2023-04-19T14:29:37;99998.59;;;12.99;76.40
77299;BME280;66361;52.034;20.656;2023-04-19T14:33:42;99987.81;;;12.90;76.72
77299;BME280;66361;52.034;20.656;2023-04-19T14:37:45;99992.72;;;12.83;77.56
77299;BME280;66361;52.034;20.656;2023-04-19T14:41:48;99988.63;;;12.79;77.81
77299;BME280;66361;52.034;20.656;2023-04-19T14:45:57;99990.41;;;12.79;77.38
77299;BME280;66361;52.034;20.656;2023-04-19T14:50:04;99982.28;;;12.69;77.10
77299;BME280;66361;52.034;20.656;2023-04-19T14:54:07;99991.50;;;12.63;76.66
77299;BME280;66361;52.034;20.656;2023-04-19T14:58:11;99987.13;;;12.51;76.69
77299;BME280;66361;52.034;20.656;2023-04-19T15:02:15;99997.53;;;12.42;77.75
77299;BME280;66361;52.034;20.656;2023-04-19T15:06:19;99993.66;;;12.35;78.36
77299;BME280;66361;52.034;20.656;2023-04-19T15:10:22;100002.09;;;12.40;79.34
77299;BME280;66361;52.034;20.656;2023-04-19T15:14:27;100008.81;;;12.56;79.04
77299;BME280;66361;52.034;20.656;2023-04-19T15:18:29;99999.09;;;12.81;78.18
77299;BME280;66361;52.034;20.656;2023-04-19T15:22:33;99998.06;;;12.94;76.67
77299;BME280;66361;52.034;20.656;2023-04-19T15:26:36;99994.59;;;13.05;78.03
77299;BME280;66361;52.034;20.656;2023-04-19T15:30:44;100000.44;;;13.21;75.78
77299;BME280;66361;52.034;20.656;2023-04-19T15:34:48;100002.63;;;13.38;74.75
77299;BME280;66361;52.034;20.656;2023-04-19T15:38:52;100002.88;;;13.35;74.78
77299;BME280;66361;52.034;20.656;2023-04-19T15:42:55;100004.00;;;13.44;73.69
77299;BME280;66361;52.034;20.656;2023-04-19T15:46:58;100003.25;;;13.42;73.73
77299;BME280;66361;52.034;20.656;2023-04-19T15:51:03;100002.41;;;13.52;73.93
77299;BME280;66361;52.034;20.656;2023-04-19T15:55:08;100006.41;;;13.58;74.43
77299;BME280;66361;52.034;20.656;2023-04-19T15:59:11;100016.25;;;13.45;74.25
77299;BME280;66361;52.034;20.656;2023-04-19T16:03:16;100013.81;;;13.31;74.71
77299;BME280;66361;52.034;20.656;2023-04-19T16:07:20;100029.31;;;13.13;74.87
77299;BME280;66361;52.034;20.656;2023-04-19T16:11:24;100024.31;;;12.97;76.14
77299;BME280;66361;52.034;20.656;2023-04-19T16:15:27;100030.31;;;12.88;78.54
77299;BME280;66361;52.034;20.656;2023-04-19T16:19:30;100031.94;;;12.78;78.03
77299;BME280;66361;52.034;20.656;2023-04-19T16:23:33;100038.56;;;12.73;78.61
77299;BME280;66361;52.034;20.656;2023-04-19T16:27:39;100031.47;;;12.60;80.11
77299;BME280;66361;52.034;20.656;2023-04-19T16:31:49;100038.81;;;12.44;80.85
77299;BME280;66361;52.034;20.656;2023-04-19T16:35:53;100052.75;;;12.23;82.30
77299;BME280;66361;52.034;20.656;2023-04-19T16:40:06;100039.69;;;11.83;85.41
77299;BME280;66361;52.034;20.656;2023-04-19T16:44:11;100050.78;;;11.50;91.94
77299;BME280;66361;52.034;20.656;2023-04-19T16:48:14;100040.94;;;11.27;94.71
77299;BME280;66361;52.034;20.656;2023-04-19T16:52:17;100034.19;;;11.09;95.24
77299;BME280;66361;52.034;20.656;2023-04-19T16:56:21;100030.03;;;10.92;99.00
77299;BME280;66361;52.034;20.656;2023-04-19T17:00:26;100041.41;;;10.80;100.00
77299;BME280;66361;52.034;20.656;2023-04-19T17:04:29;100041.47;;;10.66;100.00
77299;BME280;66361;52.034;20.656;2023-04-19T17:08:33;100056.38;;;10.53;100.00
77299;BME280;66361;52.034;20.656;2023-04-19T17:12:39;100061.50;;;10.42;100.00
77299;BME280;66361;52.034;20.656;2023-04-19T17:16:43;100067.25;;;10.34;100.00
77299;BME280;66361;52.034;20.656;2023-04-19T17:20:46;100066.88;;;10.26;100.00
77299;BME280;66361;52.034;20.656;2023-04-19T17:24:49;100073.41;;;10.20;100.00
77299;BME280;66361;52.034;20.656;2023-04-19T17:28:54;100080.84;;;10.14;100.00
77299;BME280;66361;52.034;20.656;2023-04-19T17:33:03;100076.78;;;10.08;100.00
77299;BME280;66361;52.034;20.656;2023-04-19T17:37:09;100077.28;;;10.01;100.00
77299;BME280;66361;52.034;20.656;2023-04-19T17:41:12;100086.31;;;9.97;100.00
77299;BME280;66361;52.034;20.656;2023-04-19T17:45:17;100087.53;;;9.91;100.00
77299;BME280;66361;52.034;20.656;2023-04-19T17:49:21;100102.78;;;9.86;100.00
77299;BME280;66361;52.034;20.656;2023-04-19T17:53:25;100106.47;;;9.84;100.00
77299;BME280;66361;52.034;20.656;2023-04-19T17:57:29;100119.06;;;9.79;100.00
77299;BME280;66361;52.034;20.656;2023-04-19T18:01:34;100118.41;;;9.75;100.00
77299;BME280;66361;52.034;20.656;2023-04-19T18:05:42;100122.94;;;9.73;100.00
77299;BME280;66361;52.034;20.656;2023-04-19T18:09:45;100131.00;;;9.70;100.00
77299;BME280;66361;52.034;20.656;2023-04-19T18:13:50;100130.31;;;9.66;100.00
77299;BME280;66361;52.034;20.656;2023-04-19T18:17:53;100127.97;;;9.62;100.00
77299;BME280;66361;52.034;20.656;2023-04-19T18:21:57;100135.22;;;9.58;100.00
77299;BME280;66361;52.034;20.656;2023-04-19T18:26:02;100132.75;;;9.55;100.00
77299;BME280;66361;52.034;20.656;2023-04-19T18:30:06;100127.78;;;9.51;100.00
77299;BME280;66361;52.034;20.656;2023-04-19T18:34:10;100130.75;;;9.45;100.00
77299;BME280;66361;52.034;20.656;2023-04-19T18:38:14;100132.91;;;9.38;100.00
77299;BME280;66361;52.034;20.656;2023-04-19T18:42:17;100133.34;;;9.31;100.00
77299;BME280;66361;52.034;20.656;2023-04-19T18:46:21;100132.91;;;9.22;100.00
77299;BME280;66361;52.034;20.656;2023-04-19T18:50:24;100143.97;;;9.13;100.00
77299;BME280;66361;52.034;20.656;2023-04-19T18:54:29;100133.63;;;8.95;100.00
77299;BME280;66361;52.034;20.656;2023-04-19T18:58:32;100145.03;;;8.80;100.00
77299;BME280;66361;52.034;20.656;2023-04-19T19:02:35;100139.31;;;8.56;100.00
77299;BME280;66361;52.034;20.656;2023-04-19T19:06:41;100139.94;;;8.28;100.00
77299;BME280;66361;52.034;20.656;2023-04-19T19:10:45;100141.25;;;8.04;100.00
77299;BME280;66361;52.034;20.656;2023-04-19T19:15:09;100137.59;;;7.73;100.00
77299;BME280;66361;52.034;20.656;2023-04-19T19:19:12;100149.09;;;7.54;100.00
77299;BME280;66361;52.034;20.656;2023-04-19T19:23:15;100150.56;;;7.42;100.00
77299;BME280;66361;52.034;20.656;2023-04-19T19:27:20;100153.72;;;7.31;100.00
77299;BME280;66361;52.034;20.656;2023-04-19T19:31:23;100157.16;;;7.15;100.00
77299;BME280;66361;52.034;20.656;2023-04-19T19:35:27;100160.41;;;7.03;100.00
77299;BME280;66361;52.034;20.656;2023-04-19T19:39:31;100157.78;;;7.03;100.00
77299;BME280;66361;52.034;20.656;2023-04-19T19:43:36;100162.09;;;7.04;100.00
77299;BME280;66361;52.034;20.656;2023-04-19T19:47:40;100163.03;;;7.03;100.00
77299;BME280;66361;52.034;20.656;2023-04-19T19:51:46;100163.81;;;7.05;100.00
77299;BME280;66361;52.034;20.656;2023-04-19T19:55:59;100161.03;;;7.08;100.00
77299;BME280;66361;52.034;20.656;2023-04-19T20:00:10;100169.16;;;7.20;100.00
77299;BME280;66361;52.034;20.656;2023-04-19T20:04:37;100169.28;;;7.36;100.00
77299;BME280;66361;52.034;20.656;2023-04-19T20:08:41;100175.53;;;7.51;100.00
77299;BME280;66361;52.034;20.656;2023-04-19T20:12:46;100174.13;;;7.61;100.00
77299;BME280;66361;52.034;20.656;2023-04-19T20:16:51;100180.72;;;7.69;100.00
77299;BME280;66361;52.034;20.656;2023-04-19T20:20:54;100170.56;;;7.79;100.00
77299;BME280;66361;52.034;20.656;2023-04-19T20:24:58;100178.16;;;7.85;100.00
77299;BME280;66361;52.034;20.656;2023-04-19T20:29:04;100173.50;;;7.90;100.00
77299;BME280;66361;52.034;20.656;2023-04-19T20:33:09;100176.97;;;7.91;100.00
77299;BME280;66361;52.034;20.656;2023-04-19T20:37:12;100174.34;;;7.91;100.00
77299;BME280;66361;52.034;20.656;2023-04-19T20:41:15;100168.19;;;7.92;100.00
77299;BME280;66361;52.034;20.656;2023-04-19T20:45:18;100170.81;;;7.92;100.00
77299;BME280;66361;52.034;20.656;2023-04-19T20:49:25;100167.31;;;7.91;100.00
77299;BME280;66361;52.034;20.656;2023-04-19T20:53:31;100173.44;;;7.92;100.00
77299;BME280;66361;52.034;20.656;2023-04-19T20:57:36;100157.66;;;7.92;100.00
77299;BME280;66361;52.034;20.656;2023-04-19T21:01:39;100162.84;;;7.93;100.00
77299;BME280;66361;52.034;20.656;2023-04-19T21:05:45;100148.94;;;7.91;100.00
77299;BME280;66361;52.034;20.656;2023-04-19T21:09:49;100154.13;;;7.93;100.00
77299;BME280;66361;52.034;20.656;2023-04-19T21:13:52;100149.78;;;7.92;100.00
77299;BME280;66361;52.034;20.656;2023-04-19T21:17:55;100164.69;;;7.91;100.00